createdAt,value
2022-11-02T00:00:34.678Z,13.16
2022-11-02T00:03:01.422Z,13.13
2022-11-02T00:05:28.314Z,13.10
2022-11-02T00:07:55.877Z,13.08
2022-11-02T00:10:24.091Z,13.06
2022-11-02T00:12:51.471Z,13.03
2022-11-02T00:15:18.394Z,13.00
2022-11-02T00:17:50.241Z,12.97
2022-11-02T00:20:18.972Z,12.95
2022-11-02T00:22:48.220Z,12.93
2022-11-02T00:25:17.686Z,12.91
2022-11-02T00:27:44.410Z,12.88
2022-11-02T00:30:11.108Z,12.86
2022-11-02T00:32:37.685Z,12.84
2022-11-02T00:35:04.467Z,12.83
2022-11-02T00:37:31.022Z,12.81
2022-11-02T00:39:57.805Z,12.81
2022-11-02T00:42:24.349Z,12.79
2022-11-02T00:44:51.058Z,12.78
2022-11-02T00:47:19.405Z,12.75
2022-11-02T00:49:46.036Z,12.74
2022-11-02T00:52:13.187Z,12.71
2022-11-02T00:54:39.971Z,12.69
2022-11-02T00:57:06.774Z,12.67
2022-11-02T00:59:33.308Z,12.64
2022-11-02T01:02:00.103Z,12.62
2022-11-02T01:04:27.748Z,12.58
2022-11-02T01:06:54.345Z,12.56
2022-11-02T01:09:20.935Z,12.55
2022-11-02T01:14:28.244Z,12.48
2022-11-02T01:16:54.756Z,12.45
2022-11-02T01:19:21.261Z,12.43
2022-11-02T01:21:49.051Z,12.40
2022-11-02T01:24:15.641Z,12.36
2022-11-02T01:26:42.104Z,12.32
2022-11-02T01:29:10.174Z,12.21
2022-11-02T01:31:36.859Z,12.24
2022-11-02T01:34:03.532Z,12.22
2022-11-02T01:36:30.099Z,12.20
2022-11-02T01:38:57.107Z,12.18
2022-11-02T01:41:23.680Z,12.15
2022-11-02T01:43:54.446Z,12.12
2022-11-02T01:46:25.929Z,12.10
2022-11-02T01:49:21.754Z,12.06
2022-11-02T01:51:59.948Z,12.03
2022-11-02T01:54:31.035Z,12.00
2022-11-02T01:57:03.044Z,11.98
2022-11-02T01:59:35.326Z,11.96
2022-11-02T02:02:07.890Z,11.95
2022-11-02T02:04:35.216Z,11.93
2022-11-02T02:07:02.451Z,11.92
2022-11-02T02:09:29.938Z,11.90
2022-11-02T02:11:56.656Z,11.89
2022-11-02T02:14:23.383Z,11.89
2022-11-02T02:17:37.735Z,11.88
2022-11-02T02:20:10.127Z,11.93
2022-11-02T02:22:39.280Z,11.95
2022-11-02T02:25:23.932Z,12.00
2022-11-02T02:28:06.936Z,12.04
2022-11-02T02:30:50.261Z,12.07
2022-11-02T02:33:58.689Z,12.10
2022-11-02T02:36:50.783Z,12.15
2022-11-02T02:39:26.260Z,12.21
2022-11-02T02:42:07.784Z,12.26
2022-11-02T02:44:36.628Z,12.30
2022-11-02T02:47:10.560Z,12.34
2022-11-02T02:49:42.826Z,12.37
2022-11-02T02:52:10.001Z,12.40
2022-11-02T02:54:41.014Z,12.41
2022-11-02T02:57:15.170Z,12.41
2022-11-02T02:59:47.321Z,12.42
2022-11-02T03:02:23.379Z,12.42
2022-11-02T03:04:50.317Z,12.44
2022-11-02T03:07:29.677Z,12.36
2022-11-02T03:10:13.958Z,12.44
2022-11-02T03:13:02.016Z,12.49
2022-11-02T03:15:45.727Z,12.50
2022-11-02T03:18:34.350Z,12.51
2022-11-02T03:21:01.797Z,12.53
2022-11-02T03:23:37.758Z,12.54
2022-11-02T03:26:06.952Z,12.57
2022-11-02T03:28:48.936Z,12.58
2022-11-02T03:31:31.724Z,12.62
2022-11-02T03:34:09.205Z,12.68
2022-11-02T03:37:01.205Z,12.69
2022-11-02T03:39:40.062Z,12.74
2022-11-02T03:42:11.719Z,12.79
2022-11-02T03:44:40.197Z,12.85
2022-11-02T03:47:12.458Z,12.89
2022-11-02T03:49:42.948Z,12.95
2022-11-02T03:52:16.340Z,13.02
2022-11-02T03:55:07.392Z,13.06
2022-11-02T03:57:47.962Z,13.10
2022-11-02T04:00:21.110Z,13.16
2022-11-02T04:02:59.478Z,13.20
2022-11-02T04:05:31.227Z,13.27
2022-11-02T04:08:00.209Z,13.33
2022-11-02T04:10:28.191Z,13.34
2022-11-02T04:12:54.923Z,13.38
2022-11-02T04:15:21.706Z,13.42
2022-11-02T04:17:48.702Z,13.45
2022-11-02T04:20:16.746Z,13.37
2022-11-02T04:22:43.412Z,13.49
2022-11-02T04:25:15.534Z,13.53
2022-11-02T04:27:50.307Z,13.56
2022-11-02T04:30:20.933Z,13.58
2022-11-02T04:32:49.686Z,13.61
2022-11-02T04:35:17.691Z,13.61
2022-11-02T04:37:45.732Z,13.52
2022-11-02T04:40:12.724Z,13.60
2022-11-02T04:42:39.212Z,13.60
2022-11-02T04:45:06.219Z,13.61
2022-11-02T04:47:32.856Z,13.59
2022-11-02T04:49:59.329Z,13.56
2022-11-02T04:52:25.838Z,13.55
2022-11-02T04:54:53.295Z,13.52
2022-11-02T04:57:19.934Z,13.52
2022-11-02T04:59:47.126Z,13.50
2022-11-02T05:02:13.862Z,13.48
2022-11-02T05:04:42.270Z,13.45
2022-11-02T05:07:11.047Z,13.43
2022-11-02T05:09:38.450Z,13.41
2022-11-02T05:12:05.596Z,13.38
2022-11-02T05:14:33.412Z,13.37
2022-11-02T05:17:00.856Z,13.35
2022-11-02T05:19:28.051Z,13.33
2022-11-02T05:21:54.690Z,13.31
2022-11-02T05:24:22.259Z,13.30
2022-11-02T05:26:53.762Z,13.29
2022-11-02T05:29:23.599Z,13.29
2022-11-02T05:31:51.154Z,13.28
2022-11-02T05:34:17.705Z,13.27
2022-11-02T05:36:48.165Z,13.25
2022-11-02T05:39:15.589Z,13.26
2022-11-02T05:41:42.284Z,13.25
2022-11-02T05:44:09.588Z,13.25
2022-11-02T05:46:38.714Z,13.25
2022-11-02T05:49:05.216Z,13.25
2022-11-02T05:51:31.816Z,13.26
2022-11-02T05:53:58.305Z,13.26
2022-11-02T05:56:25.436Z,13.25
2022-11-02T05:58:54.566Z,13.25
2022-11-02T06:01:21.161Z,13.26
2022-11-02T06:03:53.184Z,13.27
2022-11-02T06:06:20.239Z,13.26
2022-11-02T06:08:46.732Z,13.25
2022-11-02T06:11:14.577Z,13.26
2022-11-02T06:13:41.926Z,13.24
2022-11-02T06:16:10.542Z,13.26
2022-11-02T06:18:38.321Z,13.27
2022-11-02T06:21:05.430Z,13.29
2022-11-02T06:23:31.997Z,13.32
2022-11-02T06:26:00.217Z,13.33
2022-11-02T06:28:28.407Z,13.36
2022-11-02T06:30:56.034Z,13.36
2022-11-02T06:33:23.332Z,13.38
2022-11-02T06:35:54.074Z,13.39
2022-11-02T06:38:21.152Z,13.41
2022-11-02T06:40:58.640Z,13.40
2022-11-02T06:43:25.486Z,13.41
2022-11-02T06:45:56.629Z,13.41
2022-11-02T06:48:26.498Z,13.43
2022-11-02T06:50:55.251Z,13.43
2022-11-02T06:53:21.817Z,13.45
2022-11-02T06:55:52.719Z,13.46
2022-11-02T06:58:19.467Z,13.47
2022-11-02T07:00:46.063Z,13.50
2022-11-02T07:03:12.648Z,13.49
2022-11-02T07:05:39.179Z,13.50
2022-11-02T07:08:06.293Z,13.51
2022-11-02T07:10:32.998Z,13.50
2022-11-02T07:12:59.575Z,13.52
2022-11-02T07:15:26.513Z,13.51
2022-11-02T07:17:53.681Z,13.52
2022-11-02T07:20:20.558Z,13.51
2022-11-02T07:23:01.717Z,13.50
2022-11-02T07:25:30.653Z,13.51
2022-11-02T07:27:58.013Z,13.51
2022-11-02T07:30:24.510Z,13.51
2022-11-02T07:32:51.211Z,13.53
2022-11-02T07:35:18.824Z,13.53
2022-11-02T07:38:04.984Z,13.54
2022-11-02T07:40:33.343Z,13.58
2022-11-02T07:43:00.365Z,13.63
2022-11-02T07:45:49.402Z,13.68
2022-11-02T07:48:15.995Z,13.72
2022-11-02T07:50:42.657Z,13.79
2022-11-02T07:53:09.664Z,13.83
2022-11-02T07:55:36.324Z,13.88
2022-11-02T07:58:05.311Z,13.93
2022-11-02T08:00:34.689Z,14.00
2022-11-02T08:03:02.546Z,14.05
2022-11-02T08:05:31.052Z,14.10
2022-11-02T08:08:05.092Z,14.09
2022-11-02T08:10:37.088Z,14.23
2022-11-02T08:13:05.967Z,14.31
2022-11-02T08:15:32.551Z,14.40
2022-11-02T08:18:13.198Z,14.47
2022-11-02T08:20:39.775Z,14.58
2022-11-02T08:23:06.859Z,14.71
2022-11-02T08:25:34.165Z,14.82
2022-11-02T08:28:01.762Z,14.97
2022-11-02T08:30:30.106Z,15.10
2022-11-02T08:33:03.168Z,15.23
2022-11-02T08:35:29.712Z,15.35
2022-11-02T08:37:57.348Z,15.46
2022-11-02T08:40:24.413Z,15.52
2022-11-02T08:43:05.736Z,15.60
2022-11-02T08:45:54.205Z,15.64
2022-11-02T08:48:21.091Z,15.68
2022-11-02T08:50:49.095Z,15.70
2022-11-02T08:53:15.616Z,15.73
2022-11-02T08:55:42.390Z,15.77
2022-11-02T08:58:09.149Z,15.80
2022-11-02T09:00:36.129Z,15.84
2022-11-02T09:03:07.939Z,15.91
2022-11-02T09:05:45.805Z,15.96
2022-11-02T09:08:18.483Z,16.04
2022-11-02T09:10:48.481Z,16.12
2022-11-02T09:13:19.275Z,16.20
2022-11-02T09:15:45.736Z,16.29
2022-11-02T09:18:12.272Z,16.38
2022-11-02T09:20:38.974Z,16.49
2022-11-02T09:23:07.692Z,16.57
2022-11-02T09:25:34.343Z,16.69
2022-11-02T09:28:00.884Z,16.75
2022-11-02T09:30:28.124Z,16.84
2022-11-02T09:33:02.937Z,16.89
2022-11-02T09:35:32.646Z,17.01
2022-11-02T09:37:59.358Z,17.07
2022-11-02T09:40:28.588Z,17.14
2022-11-02T09:43:01.626Z,17.18
2022-11-02T09:45:29.281Z,17.25
2022-11-02T09:48:24.992Z,17.26
2022-11-02T09:51:14.428Z,17.33
2022-11-02T09:53:52.660Z,17.39
2022-11-02T09:56:19.780Z,17.46
2022-11-02T09:58:53.382Z,17.52
2022-11-02T10:01:33.407Z,17.58
2022-11-02T10:04:02.835Z,17.63
2022-11-02T10:06:31.378Z,17.69
2022-11-02T10:09:14.887Z,17.72
2022-11-02T10:12:30.203Z,17.70
2022-11-02T10:15:26.992Z,17.73
2022-11-02T10:17:57.479Z,17.75
2022-11-02T10:20:41.582Z,17.77
2022-11-02T10:23:17.068Z,17.79
2022-11-02T10:25:44.482Z,17.84
2022-11-02T10:28:16.912Z,17.85
2022-11-02T10:30:44.764Z,17.88
2022-11-02T10:33:15.206Z,17.89
2022-11-02T10:36:19.450Z,17.90
2022-11-02T10:38:55.282Z,17.95
2022-11-02T10:41:42.708Z,17.98
2022-11-02T10:44:41.295Z,17.99
2022-11-02T10:47:17.857Z,18.04
2022-11-02T10:50:10.979Z,18.04
2022-11-02T10:52:41.856Z,18.04
2022-11-02T10:55:17.311Z,18.00
2022-11-02T10:57:43.973Z,18.02
2022-11-02T11:00:26.704Z,18.00
2022-11-02T11:03:22.698Z,17.99
2022-11-02T11:06:04.267Z,17.99
2022-11-02T11:09:15.368Z,17.99
2022-11-02T11:11:41.912Z,18.03
2022-11-02T11:20:07.612Z,18.11
2022-11-02T11:22:39.396Z,18.16
2022-11-02T11:25:27.656Z,18.12
2022-11-02T11:27:59.355Z,18.10
2022-11-02T11:33:21.019Z,18.06
2022-11-02T11:35:50.639Z,18.03
2022-11-02T11:38:21.191Z,18.01
2022-11-02T11:40:51.205Z,17.99
2022-11-02T11:43:18.214Z,18.03
2022-11-02T11:45:58.208Z,18.00
2022-11-02T11:48:40.023Z,18.02
2022-11-02T11:51:25.480Z,17.94
2022-11-02T11:54:21.438Z,18.08
2022-11-02T11:56:49.992Z,18.12
2022-11-02T11:59:27.992Z,18.24
2022-11-02T12:01:56.712Z,18.16
2022-11-02T12:04:34.476Z,18.24
2022-11-02T12:07:00.992Z,18.25
2022-11-02T12:09:59.204Z,18.22
2022-11-02T12:12:49.136Z,18.15
2022-11-02T12:15:36.931Z,18.11
2022-11-02T12:18:15.723Z,17.98
2022-11-02T12:20:54.508Z,18.04
2022-11-02T12:23:31.864Z,17.95
2022-11-02T12:26:26.178Z,17.91
2022-11-02T12:29:16.503Z,17.84
2022-11-02T12:31:54.526Z,17.81
2022-11-02T12:34:57.784Z,17.76
2022-11-02T12:37:47.250Z,17.71
2022-11-02T12:43:32.433Z,17.63
2022-11-02T12:46:03.371Z,17.61
2022-11-02T12:48:47.145Z,17.57
2022-11-02T12:51:16.763Z,17.53
2022-11-02T12:53:55.679Z,17.53
2022-11-02T12:56:43.634Z,17.53
2022-11-02T12:59:26.999Z,17.52
2022-11-02T13:02:04.107Z,17.53
2022-11-02T13:04:45.933Z,17.52
2022-11-02T13:07:18.717Z,17.53
2022-11-02T13:09:56.693Z,17.55
2022-11-02T13:12:24.638Z,17.48
2022-11-02T13:14:54.585Z,17.57
2022-11-02T13:17:41.934Z,17.57
2022-11-02T13:20:20.583Z,17.57
2022-11-02T13:22:58.046Z,17.58
2022-11-02T13:25:38.957Z,17.56
2022-11-02T13:28:28.790Z,17.57
2022-11-02T13:30:55.469Z,17.53
2022-11-02T13:33:44.452Z,17.48
2022-11-02T13:36:11.849Z,17.50
2022-11-02T13:38:54.968Z,17.52
2022-11-02T13:41:41.215Z,17.57
2022-11-02T13:44:36.721Z,17.55
2022-11-02T13:47:08.726Z,17.52
2022-11-02T13:49:40.209Z,17.57
2022-11-02T13:52:15.810Z,17.56
2022-11-02T13:54:55.746Z,17.53
2022-11-02T13:57:33.440Z,17.51
2022-11-02T14:00:02.332Z,17.51
2022-11-02T14:02:37.125Z,17.49
2022-11-02T14:05:04.182Z,17.47
2022-11-02T14:07:40.754Z,17.44
2022-11-02T14:10:15.327Z,17.40
2022-11-02T14:12:46.114Z,17.37
2022-11-02T14:15:12.645Z,17.35
2022-11-02T14:18:11.100Z,17.29
2022-11-02T14:20:47.048Z,17.29
2022-11-02T14:23:13.703Z,17.24
2022-11-02T14:25:49.196Z,17.24
2022-11-02T14:28:21.518Z,17.19
2022-11-02T14:31:17.363Z,17.15
2022-11-02T14:34:07.197Z,17.15
2022-11-02T14:36:51.172Z,17.13
2022-11-02T14:39:41.825Z,17.11
2022-11-02T14:42:25.930Z,17.07
2022-11-02T14:44:58.084Z,17.04
2022-11-02T14:47:31.300Z,17.02
2022-11-02T14:50:14.081Z,16.96
2022-11-02T14:52:52.497Z,16.92
2022-11-02T14:55:18.976Z,16.85
2022-11-02T14:58:10.910Z,16.80
2022-11-02T15:01:00.383Z,16.75
2022-11-02T15:03:26.873Z,16.73
2022-11-02T15:06:03.596Z,16.68
2022-11-02T15:08:42.308Z,16.64
2022-11-02T15:11:45.902Z,16.59
2022-11-02T15:14:37.485Z,16.55
2022-11-02T15:17:12.957Z,16.49
2022-11-02T15:19:42.242Z,16.46
2022-11-02T15:22:39.729Z,16.39
2022-11-02T15:25:08.941Z,16.32
2022-11-02T15:27:38.159Z,16.27
2022-11-02T15:30:14.247Z,16.20
2022-11-02T15:32:45.564Z,16.12
2022-11-02T15:35:24.071Z,16.04
2022-11-02T15:38:16.441Z,15.96
2022-11-02T15:40:43.417Z,15.89
2022-11-02T15:47:08.278Z,15.65
2022-11-02T15:50:19.464Z,15.57
2022-11-02T15:53:24.460Z,15.46
2022-11-02T15:56:36.499Z,15.36
2022-11-02T15:59:21.185Z,15.26
2022-11-02T16:02:09.083Z,15.14
2022-11-02T16:04:36.816Z,15.07
2022-11-02T16:07:06.177Z,14.98
2022-11-02T16:09:35.809Z,14.90
2022-11-02T16:12:12.275Z,14.80
2022-11-02T16:14:42.683Z,14.73
2022-11-02T16:17:27.055Z,14.61
2022-11-02T16:20:16.952Z,14.50
2022-11-02T16:22:53.255Z,14.42
2022-11-02T16:25:26.956Z,14.35
2022-11-02T16:27:53.593Z,14.27
2022-11-02T16:30:22.414Z,14.18
2022-11-02T16:33:00.199Z,14.10
2022-11-02T16:35:27.533Z,14.01
2022-11-02T16:37:54.056Z,13.93
2022-11-02T16:40:21.556Z,13.88
2022-11-02T16:42:51.752Z,13.79
2022-11-02T16:45:42.301Z,13.71
2022-11-02T16:48:19.649Z,13.64
2022-11-02T16:51:02.616Z,13.55
2022-11-02T16:53:32.189Z,13.50
2022-11-02T16:56:12.873Z,13.43
2022-11-02T16:58:46.355Z,13.36
2022-11-02T17:01:23.627Z,13.29
2022-11-02T17:03:50.464Z,13.25
2022-11-02T17:06:17.988Z,13.18
2022-11-02T17:08:50.628Z,13.13
2022-11-02T17:11:17.889Z,13.07
2022-11-02T17:13:50.483Z,13.00
2022-11-02T17:16:17.284Z,12.96
2022-11-02T17:18:44.054Z,12.90
2022-11-02T17:21:13.578Z,12.84
2022-11-02T17:23:42.858Z,12.78
2022-11-02T17:26:26.400Z,12.70
2022-11-02T17:28:58.359Z,12.65
2022-11-02T17:31:34.470Z,12.60
2022-11-02T17:34:10.351Z,12.54
2022-11-02T17:36:44.946Z,12.47
2022-11-02T17:39:14.638Z,12.41
2022-11-02T17:41:47.770Z,12.37
2022-11-02T17:44:16.605Z,12.30
2022-11-02T17:46:45.740Z,12.25
2022-11-02T17:49:12.908Z,12.19
2022-11-02T17:51:39.725Z,12.14
2022-11-02T17:54:06.600Z,12.09
2022-11-02T17:56:33.105Z,12.06
2022-11-02T17:58:59.570Z,11.98
2022-11-02T18:01:26.765Z,11.95
2022-11-02T18:03:53.436Z,11.90
2022-11-02T18:06:19.965Z,11.88
2022-11-02T18:08:46.621Z,11.84
2022-11-02T18:11:13.120Z,11.80
2022-11-02T18:13:39.609Z,11.76
2022-11-02T18:16:06.366Z,11.74
2022-11-02T18:18:33.095Z,11.70
2022-11-02T18:20:59.626Z,11.67
2022-11-02T18:23:26.275Z,11.61
2022-11-02T18:25:55.306Z,11.58
2022-11-02T18:28:24.883Z,11.53
2022-11-02T18:30:51.532Z,11.50
2022-11-02T18:33:18.055Z,11.47
2022-11-02T18:35:44.554Z,11.43
2022-11-02T18:38:11.275Z,11.38
2022-11-02T18:40:37.859Z,11.36
2022-11-02T18:43:04.805Z,11.32
2022-11-02T18:45:31.785Z,11.28
2022-11-02T18:47:58.422Z,11.24
2022-11-02T18:50:26.335Z,11.22
2022-11-02T18:52:52.826Z,11.19
2022-11-02T18:55:19.359Z,11.15
2022-11-02T18:57:45.821Z,11.12
2022-11-02T19:00:13.609Z,11.09
2022-11-02T19:02:40.175Z,11.04
2022-11-02T19:05:07.118Z,11.03
2022-11-02T19:07:33.681Z,10.99
2022-11-02T19:10:03.600Z,10.97
2022-11-02T19:12:31.045Z,10.93
2022-11-02T19:14:57.895Z,10.89
2022-11-02T19:17:26.349Z,10.86
2022-11-02T19:19:53.103Z,10.84
2022-11-02T19:22:21.938Z,10.81
2022-11-02T19:24:48.966Z,10.80
2022-11-02T19:27:17.232Z,10.78
2022-11-02T19:29:44.046Z,10.75
2022-11-02T19:32:10.676Z,10.70
2022-11-02T19:34:37.390Z,10.70
2022-11-02T19:37:05.538Z,10.67
2022-11-02T19:39:32.115Z,10.56
2022-11-02T19:41:58.659Z,10.62
2022-11-02T19:44:25.377Z,10.61
2022-11-02T19:46:52.290Z,10.60
2022-11-02T19:49:18.916Z,10.58
2022-11-02T19:51:45.683Z,10.56
2022-11-02T19:54:12.275Z,10.54
2022-11-02T19:56:39.005Z,10.53
2022-11-02T19:59:06.197Z,10.50
2022-11-02T20:01:35.587Z,10.49
2022-11-02T20:04:02.675Z,10.47
2022-11-02T20:06:34.730Z,10.44
2022-11-02T20:09:03.062Z,10.43
2022-11-02T20:11:29.808Z,10.42
2022-11-02T20:13:57.867Z,10.40
2022-11-02T20:16:25.259Z,10.38
2022-11-02T20:18:52.707Z,10.36
2022-11-02T20:21:26.853Z,10.34
2022-11-02T20:23:57.902Z,10.35
2022-11-02T20:26:29.872Z,10.34
2022-11-02T20:28:56.644Z,10.34
2022-11-02T20:31:31.363Z,10.34
2022-11-02T20:34:01.928Z,10.32
2022-11-02T20:36:29.217Z,10.32
2022-11-02T20:38:55.760Z,10.29
2022-11-02T20:41:23.321Z,10.29
2022-11-02T20:43:51.482Z,10.27
2022-11-02T20:46:40.078Z,10.20
2022-11-02T20:49:20.723Z,10.23
2022-11-02T20:51:52.103Z,10.22
2022-11-02T20:54:18.719Z,10.21
2022-11-02T20:56:45.228Z,10.19
2022-11-02T20:59:11.696Z,10.17
2022-11-02T21:01:38.460Z,10.14
2022-11-02T21:04:05.132Z,10.13
2022-11-02T21:06:31.666Z,10.11
2022-11-02T21:08:58.179Z,10.08
2022-11-02T21:11:24.909Z,10.08
2022-11-02T21:13:51.662Z,10.06
2022-11-02T21:16:18.340Z,10.04
2022-11-02T21:18:44.851Z,10.02
2022-11-02T21:21:16.971Z,9.99
2022-11-02T21:23:43.778Z,9.97
2022-11-02T21:26:11.933Z,9.95
2022-11-02T21:28:40.210Z,9.94
2022-11-02T21:31:08.132Z,9.84
2022-11-02T21:33:34.864Z,9.80
2022-11-02T21:36:01.813Z,9.86
2022-11-02T21:38:29.314Z,9.84
2022-11-02T21:40:59.902Z,9.81
2022-11-02T21:43:27.150Z,9.78
2022-11-02T21:45:55.897Z,9.76
2022-11-02T21:48:24.472Z,9.73
2022-11-02T21:51:00.937Z,9.72
2022-11-02T21:53:27.683Z,9.70
2022-11-02T21:55:59.460Z,9.66
2022-11-02T21:58:26.384Z,9.63
2022-11-02T22:01:04.855Z,9.60
2022-11-02T22:03:31.400Z,9.56
2022-11-02T22:05:57.936Z,9.54
2022-11-02T22:08:25.660Z,9.52
2022-11-02T22:10:57.288Z,9.48
2022-11-02T22:13:23.830Z,9.46
2022-11-02T22:15:50.338Z,9.44
2022-11-02T22:18:17.034Z,9.42
2022-11-02T22:20:43.520Z,9.40
2022-11-02T22:23:10.169Z,9.38
2022-11-02T22:25:36.696Z,9.36
2022-11-02T22:28:03.302Z,9.35
2022-11-02T22:30:30.013Z,9.34
2022-11-02T22:32:56.538Z,9.32
2022-11-02T22:35:23.125Z,9.30
2022-11-02T22:37:49.703Z,9.28
2022-11-02T22:40:16.280Z,9.26
2022-11-02T22:42:42.785Z,9.24
2022-11-02T22:45:09.654Z,9.23
2022-11-02T22:47:36.294Z,9.21
2022-11-02T22:50:02.967Z,9.20
2022-11-02T22:52:29.711Z,9.19
2022-11-02T22:54:56.342Z,9.18
2022-11-02T22:57:22.795Z,9.17
2022-11-02T22:59:49.293Z,9.14
2022-11-02T23:02:15.982Z,9.11
2022-11-02T23:04:43.062Z,9.10
2022-11-02T23:07:09.603Z,9.09
2022-11-02T23:09:36.231Z,9.07
2022-11-02T23:12:02.878Z,9.05
2022-11-02T23:14:29.419Z,9.05
2022-11-02T23:16:55.962Z,9.03
2022-11-02T23:19:27.272Z,9.02
2022-11-02T23:22:01.500Z,9.00
2022-11-02T23:24:28.044Z,9.00
2022-11-02T23:26:54.847Z,8.98
2022-11-02T23:29:21.462Z,8.96
2022-11-02T23:31:48.040Z,8.95
2022-11-02T23:34:14.479Z,8.93
2022-11-02T23:36:40.921Z,8.90
2022-11-02T23:39:07.421Z,8.88
2022-11-02T23:41:35.787Z,8.87
2022-11-02T23:44:02.489Z,8.83
2022-11-02T23:46:29.122Z,8.80
2022-11-02T23:48:55.622Z,8.78
2022-11-02T23:51:22.065Z,8.76
2022-11-02T23:53:48.829Z,8.74
2022-11-02T23:56:16.602Z,8.73
2022-11-02T23:58:43.655Z,8.71
